sensor_id;sensor_type;location;lat;lon;timestamp;P1;durP1;ratioP1;P2;durP2;ratioP2
18649;SDS011;9454;53.516;10.478;2023-03-05T18:04:17;5.00;;;0.90;;
18649;SDS011;9454;53.516;10.478;2023-03-05T18:07:21;1.33;;;0.83;;
18649;SDS011;9454;53.516;10.478;2023-03-05T18:11:56;5.87;;;0.90;;
18649;SDS011;9454;53.516;10.478;2023-03-05T18:14:59;1.10;;;0.93;;
18649;SDS011;9454;53.516;10.478;2023-03-05T18:18:04;3.70;;;0.93;;
18649;SDS011;9454;53.516;10.478;2023-03-05T18:21:07;5.27;;;0.73;;
18649;SDS011;9454;53.516;10.478;2023-03-05T18:24:11;5.18;;;0.77;;
18649;SDS011;9454;53.516;10.478;2023-03-05T18:31:28;0.68;;;0.60;;
18649;SDS011;9454;53.516;10.478;2023-03-05T18:34:31;1.00;;;0.65;;
18649;SDS011;9454;53.516;10.478;2023-03-05T18:37:35;1.00;;;0.68;;
18649;SDS011;9454;53.516;10.478;2023-03-05T18:40:40;2.38;;;0.65;;
18649;SDS011;9454;53.516;10.478;2023-03-05T18:43:43;1.60;;;0.68;;
18649;SDS011;9454;53.516;10.478;2023-03-05T18:46:48;1.80;;;0.90;;
18649;SDS011;9454;53.516;10.478;2023-03-05T18:49:51;3.90;;;0.90;;
18649;SDS011;9454;53.516;10.478;2023-03-05T18:52:56;1.50;;;1.08;;
18649;SDS011;9454;53.516;10.478;2023-03-05T18:56:00;5.40;;;0.90;;
18649;SDS011;9454;53.516;10.478;2023-03-05T18:59:03;2.90;;;1.17;;
18649;SDS011;9454;53.516;10.478;2023-03-05T19:02:12;4.50;;;1.00;;
18649;SDS011;9454;53.516;10.478;2023-03-05T19:05:16;1.38;;;0.88;;
18649;SDS011;9454;53.516;10.478;2023-03-05T19:08:27;1.55;;;0.93;;
18649;SDS011;9454;53.516;10.478;2023-03-05T19:11:30;4.82;;;1.10;;
18649;SDS011;9454;53.516;10.478;2023-03-05T19:14:34;2.90;;;1.42;;
18649;SDS011;9454;53.516;10.478;2023-03-05T19:17:39;4.82;;;1.80;;
18649;SDS011;9454;53.516;10.478;2023-03-05T19:20:42;6.03;;;2.47;;
18649;SDS011;9454;53.516;10.478;2023-03-05T19:23:45;4.20;;;1.88;;
18649;SDS011;9454;53.516;10.478;2023-03-05T19:27:09;5.40;;;1.98;;
18649;SDS011;9454;53.516;10.478;2023-03-05T19:35:14;2.35;;;1.60;;
18649;SDS011;9454;53.516;10.478;2023-03-05T19:38:22;2.10;;;1.60;;
18649;SDS011;9454;53.516;10.478;2023-03-05T19:41:28;5.03;;;2.10;;
18649;SDS011;9454;53.516;10.478;2023-03-05T19:48:06;5.10;;;2.60;;
18649;SDS011;9454;53.516;10.478;2023-03-05T19:51:11;2.58;;;1.83;;
18649;SDS011;9454;53.516;10.478;2023-03-05T19:54:15;3.13;;;2.38;;
18649;SDS011;9454;53.516;10.478;2023-03-05T19:57:18;3.85;;;2.20;;
18649;SDS011;9454;53.516;10.478;2023-03-05T20:00:24;6.93;;;2.45;;
18649;SDS011;9454;53.516;10.478;2023-03-05T20:03:28;9.77;;;2.45;;
18649;SDS011;9454;53.516;10.478;2023-03-05T20:06:32;2.85;;;2.30;;
18649;SDS011;9454;53.516;10.478;2023-03-05T20:09:36;5.88;;;2.67;;
18649;SDS011;9454;53.516;10.478;2023-03-05T20:17:42;3.03;;;2.10;;
18649;SDS011;9454;53.516;10.478;2023-03-05T20:20:52;4.72;;;2.40;;
18649;SDS011;9454;53.516;10.478;2023-03-05T20:23:58;3.80;;;2.45;;
18649;SDS011;9454;53.516;10.478;2023-03-05T20:27:04;2.90;;;2.05;;
18649;SDS011;9454;53.516;10.478;2023-03-05T20:30:08;4.13;;;2.40;;
18649;SDS011;9454;53.516;10.478;2023-03-05T20:33:15;14.68;;;3.10;;
18649;SDS011;9454;53.516;10.478;2023-03-05T20:36:19;7.13;;;3.08;;
18649;SDS011;9454;53.516;10.478;2023-03-05T20:39:27;6.47;;;3.67;;
18649;SDS011;9454;53.516;10.478;2023-03-05T20:42:33;8.75;;;3.80;;
18649;SDS011;9454;53.516;10.478;2023-03-05T20:45:42;6.25;;;3.70;;
18649;SDS011;9454;53.516;10.478;2023-03-05T20:48:48;5.10;;;3.55;;
18649;SDS011;9454;53.516;10.478;2023-03-05T20:51:57;5.30;;;3.60;;
18649;SDS011;9454;53.516;10.478;2023-03-05T20:55:02;5.45;;;3.67;;
18649;SDS011;9454;53.516;10.478;2023-03-05T20:58:08;6.97;;;4.18;;
18649;SDS011;9454;53.516;10.478;2023-03-05T21:01:12;7.68;;;3.50;;
18649;SDS011;9454;53.516;10.478;2023-03-05T21:04:17;11.30;;;3.88;;
18649;SDS011;9454;53.516;10.478;2023-03-05T21:07:20;6.45;;;3.75;;
18649;SDS011;9454;53.516;10.478;2023-03-05T21:10:27;4.47;;;2.75;;
18649;SDS011;9454;53.516;10.478;2023-03-05T21:13:31;4.70;;;3.00;;
18649;SDS011;9454;53.516;10.478;2023-03-05T21:16:36;13.13;;;2.90;;
18649;SDS011;9454;53.516;10.478;2023-03-05T21:19:48;4.82;;;2.90;;
18649;SDS011;9454;53.516;10.478;2023-03-05T21:22:53;4.70;;;3.05;;
18649;SDS011;9454;53.516;10.478;2023-03-05T21:26:03;4.60;;;2.88;;
18649;SDS011;9454;53.516;10.478;2023-03-05T21:29:10;3.33;;;2.47;;
18649;SDS011;9454;53.516;10.478;2023-03-05T21:32:19;3.75;;;2.28;;
18649;SDS011;9454;53.516;10.478;2023-03-05T21:35:25;4.90;;;3.03;;
18649;SDS011;9454;53.516;10.478;2023-03-05T21:38:30;4.47;;;3.08;;
18649;SDS011;9454;53.516;10.478;2023-03-05T21:41:35;7.20;;;3.22;;
18649;SDS011;9454;53.516;10.478;2023-03-05T21:44:42;7.50;;;3.85;;
18649;SDS011;9454;53.516;10.478;2023-03-05T21:47:46;9.20;;;3.28;;
18649;SDS011;9454;53.516;10.478;2023-03-05T21:50:49;8.88;;;3.92;;
18649;SDS011;9454;53.516;10.478;2023-03-05T21:53:53;6.65;;;3.40;;
18649;SDS011;9454;53.516;10.478;2023-03-05T21:56:58;6.10;;;3.03;;
18649;SDS011;9454;53.516;10.478;2023-03-05T22:00:01;6.45;;;2.70;;
18649;SDS011;9454;53.516;10.478;2023-03-05T22:03:12;3.25;;;1.63;;
18649;SDS011;9454;53.516;10.478;2023-03-05T22:06:16;4.32;;;1.90;;
18649;SDS011;9454;53.516;10.478;2023-03-05T22:09:20;9.77;;;3.15;;
18649;SDS011;9454;53.516;10.478;2023-03-05T22:12:46;7.22;;;2.67;;
18649;SDS011;9454;53.516;10.478;2023-03-05T22:16:07;7.78;;;2.15;;
18649;SDS011;9454;53.516;10.478;2023-03-05T22:19:14;29.20;;;4.80;;
18649;SDS011;9454;53.516;10.478;2023-03-05T22:22:18;34.17;;;5.50;;
18649;SDS011;9454;53.516;10.478;2023-03-05T22:25:21;22.92;;;4.72;;
18649;SDS011;9454;53.516;10.478;2023-03-05T22:28:26;12.77;;;3.00;;
18649;SDS011;9454;53.516;10.478;2023-03-05T22:31:31;6.10;;;2.00;;
18649;SDS011;9454;53.516;10.478;2023-03-05T22:34:34;33.53;;;10.52;;
18649;SDS011;9454;53.516;10.478;2023-03-05T22:37:38;10.93;;;2.75;;
18649;SDS011;9454;53.516;10.478;2023-03-05T22:40:44;8.07;;;2.33;;
18649;SDS011;9454;53.516;10.478;2023-03-05T22:43:49;5.97;;;2.55;;
18649;SDS011;9454;53.516;10.478;2023-03-05T22:46:52;1.27;;;1.05;;
18649;SDS011;9454;53.516;10.478;2023-03-05T22:49:59;0.82;;;0.70;;
18649;SDS011;9454;53.516;10.478;2023-03-05T22:53:02;0.63;;;0.60;;
18649;SDS011;9454;53.516;10.478;2023-03-05T22:56:07;2.13;;;0.90;;
18649;SDS011;9454;53.516;10.478;2023-03-05T22:59:13;0.93;;;0.77;;
18649;SDS011;9454;53.516;10.478;2023-03-05T23:02:16;2.40;;;0.73;;
18649;SDS011;9454;53.516;10.478;2023-03-05T23:05:20;1.05;;;0.60;;
18649;SDS011;9454;53.516;10.478;2023-03-05T23:08:24;0.50;;;0.50;;
18649;SDS011;9454;53.516;10.478;2023-03-05T23:11:28;0.73;;;0.60;;
18649;SDS011;9454;53.516;10.478;2023-03-05T23:14:33;1.38;;;0.60;;
18649;SDS011;9454;53.516;10.478;2023-03-05T23:17:37;0.47;;;0.47;;
18649;SDS011;9454;53.516;10.478;2023-03-05T23:20:43;0.65;;;0.50;;
18649;SDS011;9454;53.516;10.478;2023-03-05T23:23:47;1.88;;;0.65;;
18649;SDS011;9454;53.516;10.478;2023-03-05T23:26:53;4.50;;;0.60;;
18649;SDS011;9454;53.516;10.478;2023-03-05T23:33:22;0.77;;;0.40;;
18649;SDS011;9454;53.516;10.478;2023-03-05T23:36:25;0.43;;;0.43;;
18649;SDS011;9454;53.516;10.478;2023-03-05T23:39:30;2.22;;;0.70;;
18649;SDS011;9454;53.516;10.478;2023-03-05T23:42:33;1.27;;;0.65;;
18649;SDS011;9454;53.516;10.478;2023-03-05T23:45:39;1.05;;;0.50;;
18649;SDS011;9454;53.516;10.478;2023-03-05T23:48:44;0.70;;;0.52;;
18649;SDS011;9454;53.516;10.478;2023-03-05T23:51:48;0.50;;;0.50;;
18649;SDS011;9454;53.516;10.478;2023-03-05T23:54:52;1.40;;;0.45;;
18649;SDS011;9454;53.516;10.478;2023-03-05T23:57:57;0.40;;;0.40;;
